Time;durP1;ratioP1;P1;durP2;ratioP2;P2;SDS_P1;SDS_P2;PMS_P1;PMS_P2;Temp;Humidity;BMP_temperature;BMP_pressure;BME280_temperature;BME280_humidity;BME280_pressure;Samples;Min_cycle;Max_cycle;Signal;HPM_P1;HPM_P2
2023/08/21 00:00:49;;;;;;;11.38;7.93;;;23.70;99.90;;;;;;4998451;28;20173;-73
2023/08/21 00:03:15;;;;;;;14.63;8.70;;;23.60;99.90;;;;;;5005208;28;20225;-73
2023/08/21 00:05:40;;;;;;;14.30;7.72;;;23.60;99.90;;;;;;4990205;28;20217;-73
2023/08/21 00:08:06;;;;;;;10.05;8.18;;;23.50;99.90;;;;;;5000656;28;20232;-73
2023/08/21 00:10:32;;;;;;;10.65;8.32;;;23.60;99.90;;;;;;5000103;28;20780;-73
2023/08/21 00:12:58;;;;;;;11.95;8.23;;;23.60;99.90;;;;;;4992338;28;20577;-73
2023/08/21 00:15:24;;;;;;;9.27;7.60;;;23.60;99.90;;;;;;5005618;28;20209;-73
2023/08/21 00:17:49;;;;;;;11.20;7.47;;;23.60;99.90;;;;;;5004777;28;20339;-74
2023/08/21 00:20:15;;;;;;;15.35;7.13;;;23.50;99.90;;;;;;5000670;28;20205;-75
2023/08/21 00:22:40;;;;;;;10.48;7.40;;;23.50;99.90;;;;;;5003775;28;20208;-74
2023/08/21 00:25:06;;;;;;;10.88;6.93;;;23.50;99.90;;;;;;5003579;28;20182;-74
2023/08/21 00:27:32;;;;;;;10.30;6.85;;;23.40;99.90;;;;;;5003182;28;20589;-74
2023/08/21 00:30:00;;;;;;;9.48;7.15;;;23.30;99.90;;;;;;5002203;28;20205;-74
2023/08/21 00:32:26;;;;;;;12.65;7.20;;;23.30;99.90;;;;;;5000840;28;20205;-75
2023/08/21 00:34:51;;;;;;;9.63;6.82;;;23.30;99.90;;;;;;5000558;28;20673;-72
2023/08/21 00:37:17;;;;;;;8.95;7.00;;;23.30;99.90;;;;;;5000197;28;20174;-73
2023/08/21 00:39:42;;;;;;;9.30;7.32;;;23.30;99.90;;;;;;5011551;28;20184;-73
2023/08/21 00:42:08;;;;;;;12.80;7.22;;;23.30;99.90;;;;;;4992636;28;20236;-73
2023/08/21 00:44:34;;;;;;;9.80;6.75;;;23.30;99.90;;;;;;5007952;28;20209;-74
2023/08/21 00:47:00;;;;;;;8.65;6.93;;;23.20;99.90;;;;;;5001522;28;20639;-73
2023/08/21 00:49:26;;;;;;;10.00;7.50;;;23.30;99.90;;;;;;5000404;28;20184;-73
2023/08/21 00:51:53;;;;;;;7.53;6.70;;;23.20;99.90;;;;;;5008262;28;20650;-74
2023/08/21 00:54:19;;;;;;;8.20;6.88;;;23.20;99.90;;;;;;5002045;28;20715;-74
2023/08/21 00:56:45;;;;;;;8.55;6.97;;;23.20;99.90;;;;;;5007003;28;20718;-74
2023/08/21 00:59:11;;;;;;;9.63;7.13;;;23.30;99.90;;;;;;4999635;28;20213;-73
2023/08/21 01:01:37;;;;;;;9.30;7.10;;;23.20;99.90;;;;;;5006358;28;20205;-73
2023/08/21 01:04:03;;;;;;;10.70;7.90;;;23.20;99.90;;;;;;4999187;28;20778;-73
2023/08/21 01:06:29;;;;;;;7.85;6.85;;;23.20;99.90;;;;;;4994459;28;20213;-73
2023/08/21 01:09:04;;;;;;;11.43;7.25;;;23.20;99.90;;;;;;4998326;28;20217;-73
2023/08/21 01:11:51;;;;;;;11.27;7.30;;;23.20;99.90;;;;;;4995920;28;20204;-74
2023/08/21 01:14:19;;;;;;;10.68;8.02;;;22.90;99.90;;;;;;5001449;28;20733;-73
2023/08/21 01:16:47;;;;;;;12.60;8.27;;;22.90;99.90;;;;;;5001571;28;20592;-74
2023/08/21 01:19:48;;;;;;;12.85;7.88;;;22.80;99.90;;;;;;5006436;28;20189;-71
2023/08/21 01:22:14;;;;;;;11.75;7.55;;;22.80;99.90;;;;;;4968034;28;20220;-74
2023/08/21 01:24:40;;;;;;;10.77;8.40;;;22.70;99.90;;;;;;4977010;28;20202;-74
2023/08/21 01:27:06;;;;;;;9.98;8.40;;;22.80;99.90;;;;;;4973713;28;20345;-73
2023/08/21 01:29:33;;;;;;;9.23;7.90;;;22.90;99.90;;;;;;4977783;28;20198;-74
2023/08/21 01:32:13;;;;;;;12.80;9.02;;;22.90;99.90;;;;;;4971504;28;20205;-75
2023/08/21 01:34:40;;;;;;;9.50;8.40;;;22.80;99.90;;;;;;4977173;28;20347;-74
2023/08/21 01:37:07;;;;;;;10.13;7.75;;;22.90;99.90;;;;;;4971177;28;20182;-73
2023/08/21 01:39:33;;;;;;;12.70;8.48;;;22.70;99.90;;;;;;4980982;28;20208;-74
2023/08/21 01:41:58;;;;;;;13.93;8.93;;;22.90;99.90;;;;;;4978726;28;20206;-74
2023/08/21 01:44:24;;;;;;;10.65;8.15;;;22.80;99.90;;;;;;4980105;28;20651;-74
2023/08/21 01:46:50;;;;;;;12.73;8.73;;;22.90;99.90;;;;;;4973397;28;20215;-74
2023/08/21 01:49:15;;;;;;;13.65;9.40;;;23.00;99.90;;;;;;4982638;28;20601;-73
2023/08/21 01:51:41;;;;;;;11.80;8.90;;;22.80;99.90;;;;;;4972270;28;20227;-73
2023/08/21 01:54:06;;;;;;;10.50;8.98;;;22.70;99.90;;;;;;4973924;28;20280;-73
2023/08/21 01:56:32;;;;;;;10.13;9.07;;;22.70;99.90;;;;;;4971420;28;20230;-73
2023/08/21 01:58:58;;;;;;;11.95;8.70;;;22.70;99.90;;;;;;4973783;28;20583;-73
2023/08/21 02:01:23;;;;;;;10.50;9.07;;;22.70;99.90;;;;;;4971064;28;20203;-73
2023/08/21 02:03:49;;;;;;;15.23;9.05;;;22.70;99.90;;;;;;4978602;28;20570;-73
2023/08/21 02:06:15;;;;;;;11.75;8.18;;;22.80;99.90;;;;;;4974910;28;20210;-73
2023/08/21 02:08:40;;;;;;;10.68;8.10;;;22.80;99.90;;;;;;4981054;28;20273;-74
2023/08/21 02:11:06;;;;;;;11.95;8.07;;;22.80;99.90;;;;;;4973062;28;20406;-72
2023/08/21 02:13:32;;;;;;;11.43;8.20;;;22.80;99.90;;;;;;4979502;28;20202;-73
2023/08/21 02:15:58;;;;;;;9.57;7.60;;;22.90;99.90;;;;;;4972157;28;20171;-73
2023/08/21 02:18:24;;;;;;;10.73;8.30;;;22.90;99.90;;;;;;4979028;28;20211;-73
2023/08/21 02:20:50;;;;;;;9.90;7.95;;;22.90;99.90;;;;;;4980014;28;20284;-73
2023/08/21 02:23:16;;;;;;;11.07;8.07;;;22.90;99.90;;;;;;4979219;28;20736;-74
2023/08/21 02:25:42;;;;;;;11.43;8.88;;;22.80;99.90;;;;;;4980333;28;20577;-74
2023/08/21 02:28:08;;;;;;;8.55;7.60;;;22.80;99.90;;;;;;4974159;28;20205;-74
2023/08/21 02:30:33;;;;;;;11.82;8.63;;;22.80;99.90;;;;;;4969324;28;20214;-75
2023/08/21 02:32:59;;;;;;;10.88;8.55;;;22.70;99.90;;;;;;4975008;28;20834;-74
2023/08/21 02:35:24;;;;;;;10.32;7.75;;;22.70;99.90;;;;;;4964529;28;20217;-73
2023/08/21 02:37:50;;;;;;;9.48;7.53;;;22.80;99.90;;;;;;4971875;28;20221;-74
2023/08/21 02:40:16;;;;;;;10.40;8.27;;;22.70;99.90;;;;;;4974041;28;20173;-75
2023/08/21 02:42:41;;;;;;;10.63;7.68;;;22.70;99.90;;;;;;4976572;28;20194;-74
2023/08/21 02:45:08;;;;;;;12.23;7.78;;;22.80;99.90;;;;;;4974890;28;20312;-72
2023/08/21 02:47:43;;;;;;;9.75;7.57;;;22.80;99.90;;;;;;4976122;28;20592;-73
2023/08/21 02:50:09;;;;;;;11.60;8.70;;;22.80;99.90;;;;;;4976671;28;20213;-73
2023/08/21 02:52:36;;;;;;;9.85;7.95;;;22.80;99.90;;;;;;4978521;28;20225;-74
2023/08/21 02:55:02;;;;;;;10.55;7.60;;;22.80;99.90;;;;;;4979003;28;20182;-73
2023/08/21 02:57:28;;;;;;;14.40;7.97;;;22.80;99.90;;;;;;4975015;28;20265;-74
2023/08/21 02:59:54;;;;;;;11.02;8.18;;;22.80;99.90;;;;;;4980138;28;20206;-73
2023/08/21 03:02:20;;;;;;;12.05;8.52;;;22.80;99.90;;;;;;4974408;28;20223;-74
2023/08/21 03:04:46;;;;;;;15.40;8.18;;;22.70;99.90;;;;;;4969956;28;20215;-73
2023/08/21 03:07:12;;;;;;;14.20;9.07;;;22.80;99.90;;;;;;4969236;28;20209;-73
2023/08/21 03:09:38;;;;;;;12.45;7.80;;;22.80;99.90;;;;;;4968478;28;20643;-71
2023/08/21 03:12:04;;;;;;;11.20;7.85;;;22.80;99.90;;;;;;4975072;28;20280;-73
2023/08/21 03:14:30;;;;;;;9.82;7.65;;;22.90;99.90;;;;;;4977415;28;20338;-73
2023/08/21 03:16:55;;;;;;;8.50;7.50;;;22.80;99.90;;;;;;4977223;28;20209;-73
2023/08/21 03:19:21;;;;;;;10.20;7.30;;;22.70;99.90;;;;;;4980961;28;20183;-73
2023/08/21 03:21:47;;;;;;;11.15;7.43;;;22.70;99.90;;;;;;4980527;28;20257;-74
2023/08/21 03:24:12;;;;;;;9.70;7.97;;;22.80;99.90;;;;;;4979701;28;20222;-74
2023/08/21 03:26:38;;;;;;;13.25;8.07;;;22.80;99.90;;;;;;4979433;28;20206;-73
2023/08/21 03:29:03;;;;;;;10.60;7.65;;;22.80;99.90;;;;;;4978172;28;20279;-74
2023/08/21 03:31:30;;;;;;;10.88;8.05;;;22.80;99.90;;;;;;4979042;28;20275;-74
2023/08/21 03:33:56;;;;;;;9.65;7.60;;;22.90;99.90;;;;;;4980754;28;20201;-73
2023/08/21 03:36:30;;;;;;;11.52;8.05;;;22.90;99.90;;;;;;4977451;28;20705;-73
2023/08/21 03:38:57;;;;;;;8.50;7.35;;;22.90;99.90;;;;;;4977865;28;20232;-73
2023/08/21 03:41:22;;;;;;;9.63;7.35;;;22.70;99.90;;;;;;4969226;28;20600;-73
2023/08/21 03:43:48;;;;;;;8.65;6.97;;;22.70;99.90;;;;;;4972448;28;20221;-73
2023/08/21 03:46:13;;;;;;;10.57;7.15;;;22.60;99.90;;;;;;4974837;28;20181;-73
2023/08/21 03:48:39;;;;;;;11.30;7.30;;;22.60;99.90;;;;;;4976091;28;20298;-72
2023/08/21 03:51:04;;;;;;;11.73;7.07;;;22.50;99.90;;;;;;4974245;28;20224;-73
2023/08/21 03:53:30;;;;;;;11.10;8.07;;;22.50;99.90;;;;;;4974178;28;20222;-73
2023/08/21 03:55:55;;;;;;;8.45;7.53;;;22.60;99.90;;;;;;4981050;28;20217;-73
2023/08/21 03:58:21;;;;;;;11.23;8.23;;;22.50;99.90;;;;;;4978203;28;20269;-73
2023/08/21 04:00:47;;;;;;;10.10;7.40;;;22.60;99.90;;;;;;4985387;28;20207;-73
2023/08/21 04:03:12;;;;;;;9.88;7.68;;;22.60;99.90;;;;;;4974511;28;20231;-74
2023/08/21 04:05:38;;;;;;;12.48;7.25;;;22.70;99.90;;;;;;4979763;28;20293;-73
2023/08/21 04:08:04;;;;;;;13.32;8.07;;;22.70;99.90;;;;;;4977742;28;20896;-73
2023/08/21 04:10:29;;;;;;;10.80;7.47;;;22.50;99.90;;;;;;4980943;28;20186;-73
2023/08/21 04:12:55;;;;;;;10.05;7.45;;;22.50;99.90;;;;;;4987074;28;20198;-73
2023/08/21 04:15:20;;;;;;;9.50;7.95;;;22.60;99.90;;;;;;4980027;28;20569;-74
2023/08/21 04:17:46;;;;;;;14.27;7.47;;;22.60;99.90;;;;;;4974925;28;20238;-74
2023/08/21 04:20:12;;;;;;;9.95;8.23;;;22.80;99.90;;;;;;4978099;28;20217;-74
2023/08/21 04:22:37;;;;;;;13.60;8.65;;;22.90;99.90;;;;;;4975352;28;20218;-71
2023/08/21 04:25:03;;;;;;;10.68;7.95;;;23.00;99.90;;;;;;4981693;28;20205;-74
2023/08/21 04:27:28;;;;;;;8.98;7.50;;;23.10;99.90;;;;;;4974597;28;20241;-73
2023/08/21 04:29:54;;;;;;;10.10;7.53;;;23.10;99.90;;;;;;4984227;28;20198;-73
2023/08/21 04:32:20;;;;;;;14.60;8.35;;;23.20;99.90;;;;;;4979433;28;20214;-74
2023/08/21 04:34:45;;;;;;;9.98;7.78;;;23.20;99.90;;;;;;4990252;23;20227;-72
2023/08/21 04:37:11;;;;;;;12.48;8.68;;;23.30;99.90;;;;;;4966554;28;20185;-72
2023/08/21 04:39:36;;;;;;;9.35;8.30;;;23.40;99.90;;;;;;4964224;28;20265;-72
2023/08/21 04:42:02;;;;;;;10.82;8.07;;;23.40;99.90;;;;;;4966237;28;20218;-72
2023/08/21 04:44:29;;;;;;;10.25;8.90;;;23.50;99.90;;;;;;4965947;28;20298;-72
2023/08/21 04:46:55;;;;;;;11.52;9.10;;;23.40;99.90;;;;;;4965322;28;20256;-72
2023/08/21 04:49:21;;;;;;;11.63;9.27;;;23.40;99.90;;;;;;4963503;28;20226;-72
2023/08/21 04:51:46;;;;;;;9.38;8.40;;;23.50;99.90;;;;;;4965800;28;20182;-72
2023/08/21 04:54:12;;;;;;;9.57;8.57;;;23.50;99.90;;;;;;4961785;28;20214;-72
2023/08/21 04:56:37;;;;;;;10.70;8.60;;;23.60;99.90;;;;;;4971647;28;20227;-70
2023/08/21 04:59:03;;;;;;;12.88;9.63;;;23.80;99.90;;;;;;4970879;28;20198;-72
2023/08/21 05:01:29;;;;;;;9.98;8.32;;;23.70;99.90;;;;;;4970666;28;20547;-72
2023/08/21 05:03:55;;;;;;;12.68;8.65;;;24.40;99.90;;;;;;4971356;28;20282;-72
2023/08/21 05:06:20;;;;;;;10.10;7.97;;;25.00;99.90;;;;;;4968862;28;20280;-71
2023/08/21 05:08:46;;;;;;;12.55;8.05;;;25.70;99.90;;;;;;4971658;28;20273;-72
2023/08/21 05:11:11;;;;;;;12.07;8.85;;;25.50;99.90;;;;;;4967390;28;20210;-72
2023/08/21 05:13:37;;;;;;;11.18;8.52;;;25.20;99.90;;;;;;4967106;28;20288;-70
2023/08/21 05:16:03;;;;;;;12.05;8.85;;;25.10;99.90;;;;;;4968879;28;20209;-72
2023/08/21 05:18:28;;;;;;;11.80;9.30;;;25.00;99.90;;;;;;4964918;28;20232;-72
2023/08/21 05:20:55;;;;;;;11.05;8.35;;;24.80;99.90;;;;;;4967069;28;20275;-72
2023/08/21 05:23:21;;;;;;;12.77;8.18;;;24.70;99.90;;;;;;4963191;28;20218;-71
2023/08/21 05:25:49;;;;;;;9.52;8.15;;;25.60;99.90;;;;;;4965766;28;20712;-72
2023/08/21 05:28:15;;;;;;;9.93;7.53;;;26.10;99.90;;;;;;4963069;28;20209;-72
2023/08/21 05:30:40;;;;;;;10.80;7.32;;;26.90;99.90;;;;;;4963816;28;20207;-72
2023/08/21 05:33:06;;;;;;;9.40;7.47;;;27.50;99.90;;;;;;4966740;28;20293;-72
2023/08/21 05:35:38;;;;;;;10.63;8.18;;;26.90;99.90;;;;;;4970902;28;20206;-72
2023/08/21 05:38:04;;;;;;;13.18;7.53;;;27.90;99.90;;;;;;4970866;28;20688;-72
2023/08/21 05:40:29;;;;;;;12.80;8.63;;;28.30;99.90;;;;;;4968236;28;20210;-72
2023/08/21 05:42:55;;;;;;;11.00;8.20;;;29.50;99.90;;;;;;4972695;28;20177;-72
2023/08/21 05:45:20;;;;;;;10.82;7.15;;;30.40;99.90;;;;;;4967820;28;20641;-71
2023/08/21 05:47:46;;;;;;;10.45;6.70;;;31.10;99.90;;;;;;4967910;28;20623;-71
2023/08/21 05:50:12;;;;;;;9.68;7.85;;;30.70;99.90;;;;;;4967721;28;20645;-72
2023/08/21 05:52:37;;;;;;;9.23;7.63;;;29.30;99.90;;;;;;4965685;28;20211;-70
2023/08/21 05:55:04;;;;;;;8.68;6.80;;;29.40;99.90;;;;;;4967403;28;20284;-71
2023/08/21 05:57:30;;;;;;;11.05;9.10;;;27.90;99.90;;;;;;4962187;28;20262;-71
2023/08/21 05:59:55;;;;;;;11.98;8.15;;;27.00;99.90;;;;;;4965950;28;20584;-71
2023/08/21 06:02:21;;;;;;;10.18;9.07;;;26.90;99.90;;;;;;4962011;28;20210;-71
2023/08/21 06:04:47;;;;;;;11.10;8.20;;;27.00;99.90;;;;;;4969902;28;20218;-71
2023/08/21 06:07:12;;;;;;;8.88;7.97;;;26.90;99.90;;;;;;4962286;28;20669;-71
2023/08/21 06:09:38;;;;;;;8.75;7.28;;;28.00;99.90;;;;;;4970239;28;20595;-71
2023/08/21 06:12:04;;;;;;;11.15;7.63;;;28.80;99.90;;;;;;4970980;28;20302;-72
2023/08/21 06:14:30;;;;;;;12.13;7.45;;;28.60;99.90;;;;;;4968021;28;20207;-71
2023/08/21 06:17:02;;;;;;;8.27;7.40;;;28.30;99.90;;;;;;4969808;28;20767;-71
2023/08/21 06:19:28;;;;;;;8.05;7.25;;;28.10;99.90;;;;;;4968041;28;20190;-71
2023/08/21 06:21:55;;;;;;;9.43;8.30;;;28.30;99.90;;;;;;4968880;28;20250;-71
2023/08/21 06:24:21;;;;;;;8.60;7.78;;;28.30;99.90;;;;;;4967120;28;20217;-72
2023/08/21 06:26:46;;;;;;;9.38;8.38;;;28.40;99.90;;;;;;4969517;28;20214;-71
2023/08/21 06:29:12;;;;;;;8.88;7.97;;;28.20;99.90;;;;;;4965380;28;20300;-71
2023/08/21 06:31:38;;;;;;;8.85;7.60;;;28.80;99.90;;;;;;4964334;28;20230;-71
2023/08/21 06:34:03;;;;;;;9.93;8.10;;;29.00;99.90;;;;;;4966134;28;20210;-72
2023/08/21 06:36:29;;;;;;;10.02;7.72;;;29.00;99.90;;;;;;4962387;28;20643;-71
2023/08/21 06:38:55;;;;;;;9.38;8.00;;;30.10;99.90;;;;;;4964832;28;20265;-72
2023/08/21 06:41:21;;;;;;;12.75;8.05;;;31.90;99.90;;;;;;4961944;28;20215;-72
2023/08/21 06:43:47;;;;;;;7.90;7.20;;;33.00;99.90;;;;;;4963725;28;20222;-72
2023/08/21 06:46:13;;;;;;;7.72;6.95;;;34.50;99.90;;;;;;4967889;28;20186;-72
2023/08/21 06:48:42;;;;;;;7.53;6.80;;;35.90;99.90;;;;;;4968659;28;20593;-71
2023/08/21 06:51:08;;;;;;;9.50;7.55;;;36.90;99.90;;;;;;4970224;28;20202;-70
2023/08/21 06:53:34;;;;;;;10.73;7.55;;;37.80;99.90;;;;;;4968425;28;20212;-70
2023/08/21 06:56:00;;;;;;;9.23;7.65;;;37.40;99.90;;;;;;4969085;28;20214;-70
2023/08/21 06:58:25;;;;;;;8.93;7.88;;;36.10;99.90;;;;;;4967708;28;20231;-70
2023/08/21 07:00:53;;;;;;;11.15;7.88;;;34.80;99.90;;;;;;4967521;28;20216;-72
2023/08/21 07:03:18;;;;;;;11.40;7.43;;;34.40;99.90;;;;;;4965352;28;20732;-72
2023/08/21 07:05:52;;;;;;;12.43;6.78;;;34.60;99.90;;;;;;4965153;28;20225;-72
2023/08/21 07:08:18;;;;;;;8.10;6.63;;;35.20;99.90;;;;;;4965368;28;20213;-70
2023/08/21 07:10:44;;;;;;;7.10;6.38;;;36.70;99.90;;;;;;4964022;28;20221;-70
2023/08/21 07:13:09;;;;;;;7.53;5.78;;;37.60;99.90;;;;;;4965112;28;20185;-70
2023/08/21 07:15:35;;;;;;;7.53;6.80;;;38.60;99.90;;;;;;4964402;28;20252;-70
2023/08/21 07:18:01;;;;;;;6.68;5.55;;;39.00;97.80;;;;;;4969514;28;20751;-70
2023/08/21 07:20:26;;;;;;;6.88;5.00;;;38.40;97.60;;;;;;4964369;28;20221;-70
2023/08/21 07:22:52;;;;;;;5.38;4.88;;;38.10;97.10;;;;;;4969893;28;20308;-70
2023/08/21 07:25:17;;;;;;;8.90;5.28;;;38.00;96.80;;;;;;4973516;28;20286;-71
2023/08/21 07:27:43;;;;;;;7.50;5.15;;;38.00;96.70;;;;;;4973188;28;20233;-70
2023/08/21 07:30:09;;;;;;;6.60;4.50;;;38.20;97.10;;;;;;4973262;28;20233;-70
2023/08/21 07:32:35;;;;;;;6.03;4.85;;;38.70;95.80;;;;;;4971104;28;20206;-70
2023/08/21 07:35:01;;;;;;;6.10;5.05;;;39.20;94.90;;;;;;4971808;28;20214;-70
2023/08/21 07:37:26;;;;;;;6.50;5.13;;;39.70;94.00;;;;;;4970306;28;20195;-70
2023/08/21 07:39:52;;;;;;;6.72;5.53;;;39.90;92.40;;;;;;4970512;28;20465;-70
2023/08/21 07:42:18;;;;;;;6.35;5.07;;;40.00;91.70;;;;;;4971072;28;20213;-71
2023/08/21 07:44:45;;;;;;;5.15;4.18;;;40.60;90.90;;;;;;4967476;28;20226;-70
2023/08/21 07:47:11;;;;;;;6.05;5.40;;;40.70;89.60;;;;;;4968957;28;20296;-70
2023/08/21 07:49:37;;;;;;;7.05;5.07;;;40.30;89.30;;;;;;4965756;28;20289;-70
2023/08/21 07:52:05;;;;;;;7.05;3.88;;;40.00;89.50;;;;;;4968523;28;20258;-70
2023/08/21 07:54:31;;;;;;;4.68;4.03;;;40.70;87.30;;;;;;4964121;28;20237;-70
2023/08/21 07:56:57;;;;;;;5.40;4.30;;;40.30;86.00;;;;;;4966072;28;20297;-72
2023/08/21 07:59:22;;;;;;;4.05;3.28;;;39.40;86.20;;;;;;4965983;28;20217;-70
2023/08/21 08:01:48;;;;;;;4.80;3.60;;;38.50;86.40;;;;;;4973659;28;20221;-73
2023/08/21 08:04:14;;;;;;;5.60;3.50;;;37.70;87.80;;;;;;4975376;28;20206;-71
2023/08/21 08:06:39;;;;;;;6.18;3.40;;;36.30;88.90;;;;;;4973732;28;20680;-72
2023/08/21 08:09:05;;;;;;;5.40;3.50;;;35.80;90.10;;;;;;4971704;28;20225;-72
2023/08/21 08:11:30;;;;;;;3.70;3.33;;;35.30;91.10;;;;;;4971085;28;20221;-71
2023/08/21 08:13:56;;;;;;;6.05;3.40;;;35.40;91.50;;;;;;4969430;28;20275;-71
2023/08/21 08:16:22;;;;;;;5.15;3.58;;;34.90;91.90;;;;;;4970513;28;20288;-72
2023/08/21 08:18:48;;;;;;;5.82;3.45;;;35.10;91.90;;;;;;4967991;28;20553;-70
2023/08/21 08:21:14;;;;;;;7.18;3.35;;;34.60;92.20;;;;;;4972590;28;20218;-71
2023/08/21 08:23:39;;;;;;;7.38;3.58;;;34.20;93.10;;;;;;4964212;28;20236;-70
2023/08/21 08:26:05;;;;;;;3.88;3.17;;;33.70;93.80;;;;;;4966657;28;21038;-70
2023/08/21 08:28:31;;;;;;;6.78;3.60;;;33.40;94.40;;;;;;4965219;28;20212;-71
2023/08/21 08:30:57;;;;;;;4.07;3.08;;;33.20;95.10;;;;;;4962240;28;20702;-70
2023/08/21 08:33:23;;;;;;;5.07;3.38;;;34.00;94.80;;;;;;4963011;28;20230;-71
2023/08/21 08:35:49;;;;;;;5.25;3.00;;;35.40;93.60;;;;;;4970108;28;20635;-71
2023/08/21 08:38:14;;;;;;;5.63;3.33;;;36.10;92.30;;;;;;4972998;28;20210;-71
2023/08/21 08:40:46;;;;;;;4.93;3.60;;;36.30;91.30;;;;;;4972012;28;20209;-69
2023/08/21 08:43:12;;;;;;;4.38;2.60;;;37.00;91.20;;;;;;4974009;28;20223;-71
2023/08/21 08:45:40;;;;;;;3.40;2.20;;;37.10;89.80;;;;;;4970454;28;20689;-70
2023/08/21 08:48:07;;;;;;;4.13;1.98;;;36.50;86.20;;;;;;4968054;28;20272;-71
2023/08/21 08:50:34;;;;;;;5.95;1.98;;;36.90;86.00;;;;;;4969698;28;20210;-70
2023/08/21 08:53:00;;;;;;;3.13;1.50;;;37.20;84.20;;;;;;4968472;28;20206;-70
2023/08/21 08:55:26;;;;;;;3.95;1.60;;;37.80;77.40;;;;;;4968797;28;20177;-71
2023/08/21 08:57:53;;;;;;;4.03;1.52;;;37.80;76.50;;;;;;4965329;28;20570;-71
2023/08/21 09:00:20;;;;;;;3.78;1.45;;;38.50;75.00;;;;;;4968578;28;20218;-71
2023/08/21 09:02:46;;;;;;;2.35;1.65;;;37.60;75.20;;;;;;4962852;28;20210;-70
2023/08/21 09:05:12;;;;;;;2.00;1.38;;;36.50;76.50;;;;;;4966718;28;20218;-71
2023/08/21 09:07:38;;;;;;;3.35;1.77;;;35.90;77.40;;;;;;4963061;28;20222;-69
2023/08/21 09:10:04;;;;;;;2.35;1.17;;;35.40;78.40;;;;;;4965567;28;20613;-71
2023/08/21 09:12:32;;;;;;;3.80;1.40;;;35.30;79.60;;;;;;4962073;28;20283;-70
2023/08/21 09:14:59;;;;;;;4.60;1.42;;;35.10;79.80;;;;;;4970799;28;20214;-70
2023/08/21 09:17:26;;;;;;;2.78;1.33;;;34.50;79.80;;;;;;4971641;28;20297;-71
2023/08/21 09:19:52;;;;;;;2.70;1.52;;;34.60;81.30;;;;;;4970397;28;20213;-70
2023/08/21 09:22:19;;;;;;;5.10;1.48;;;35.10;80.90;;;;;;4970345;28;20602;-71
2023/08/21 09:25:05;;;;;;;3.55;1.50;;;35.60;80.70;;;;;;4968846;28;20190;-69
2023/08/21 09:27:30;;;;;;;2.53;1.20;;;36.20;79.40;;;;;;4967158;28;20218;-70
2023/08/21 09:29:57;;;;;;;5.05;1.60;;;36.00;78.90;;;;;;4967730;28;20254;-71
2023/08/21 09:32:24;;;;;;;3.03;1.83;;;35.80;79.00;;;;;;4968011;28;20298;-71
2023/08/21 09:34:49;;;;;;;3.38;1.10;;;35.90;78.80;;;;;;4965095;28;20218;-70
2023/08/21 09:37:17;;;;;;;3.65;1.52;;;35.40;79.70;;;;;;4966662;28;20228;-71
2023/08/21 09:39:44;;;;;;;3.33;1.50;;;35.80;79.70;;;;;;4964525;28;20198;-70
2023/08/21 09:42:10;;;;;;;3.10;1.40;;;35.20;79.20;;;;;;4969365;28;20264;-71
2023/08/21 09:44:41;;;;;;;2.40;1.20;;;35.50;80.10;;;;;;4963263;28;20220;-71
2023/08/21 09:47:11;;;;;;;3.92;1.38;;;35.40;81.10;;;;;;4969993;28;20210;-72
2023/08/21 09:49:39;;;;;;;2.80;1.40;;;35.10;80.90;;;;;;4961802;28;20206;-73
2023/08/21 09:52:06;;;;;;;3.08;1.40;;;35.10;80.90;;;;;;4970934;28;20209;-72
2023/08/21 09:54:33;;;;;;;3.85;1.48;;;34.80;81.00;;;;;;4970911;28;20759;-73
2023/08/21 09:57:03;;;;;;;4.82;1.60;;;34.20;82.50;;;;;;4969388;28;20238;-72
2023/08/21 09:59:31;;;;;;;3.25;1.50;;;33.90;84.50;;;;;;4971019;28;20762;-72
2023/08/21 10:01:59;;;;;;;2.92;1.40;;;34.10;85.00;;;;;;4967706;28;20686;-72
2023/08/21 10:04:25;;;;;;;4.40;1.95;;;34.20;85.80;;;;;;4970088;28;20195;-73
2023/08/21 10:06:54;;;;;;;3.38;1.35;;;33.80;85.90;;;;;;4965302;28;20650;-72
2023/08/21 10:09:21;;;;;;;2.67;1.85;;;34.00;85.50;;;;;;4970493;28;20360;-70
2023/08/21 10:11:48;;;;;;;4.22;3.17;;;34.10;84.80;;;;;;4964861;28;20206;-72
2023/08/21 10:14:14;;;;;;;3.40;1.73;;;34.50;85.80;;;;;;4965100;28;20244;-70
2023/08/21 10:16:40;;;;;;;3.40;1.55;;;34.20;85.30;;;;;;4964132;28;20768;-72
2023/08/21 10:19:06;;;;;;;4.45;1.80;;;34.40;85.10;;;;;;4965025;28;20171;-72
2023/08/21 10:21:37;;;;;;;5.95;3.38;;;34.00;83.20;;;;;;4964336;28;20558;-74
2023/08/21 10:24:02;;;;;;;5.70;2.72;;;34.20;83.10;;;;;;4963387;28;20252;-72
2023/08/21 10:26:28;;;;;;;6.13;2.70;;;34.30;82.90;;;;;;4964084;28;20222;-74
2023/08/21 10:28:59;;;;;;;2.83;1.60;;;34.30;83.40;;;;;;4969007;28;20222;-72
2023/08/21 10:31:30;;;;;;;5.55;1.75;;;34.10;83.40;;;;;;4970761;28;20174;-71
2023/08/21 10:33:56;;;;;;;3.83;1.63;;;33.70;82.50;;;;;;4969117;28;20226;-70
2023/08/21 10:36:44;;;;;;;2.08;1.35;;;33.30;83.70;;;;;;4971005;28;20267;-70
2023/08/21 10:39:19;;;;;;;3.05;1.42;;;33.10;84.30;;;;;;4968128;28;20234;-70
2023/08/21 10:41:55;;;;;;;2.92;1.33;;;32.70;84.10;;;;;;4970129;28;20204;-70
2023/08/21 10:44:59;;;;;;;7.28;1.77;;;32.60;85.00;;;;;;4961930;28;20261;-70
2023/08/21 10:47:28;;;;;;;2.92;1.48;;;32.90;85.10;;;;;;4966435;28;20218;-70
2023/08/21 10:50:03;;;;;;;5.25;1.55;;;33.10;85.30;;;;;;4965911;28;20708;-70
2023/08/21 10:52:44;;;;;;;1.45;1.00;;;33.10;85.20;;;;;;4968551;28;20649;-71
2023/08/21 10:55:11;;;;;;;5.78;1.58;;;32.80;84.80;;;;;;4968882;28;20198;-70
2023/08/21 10:57:38;;;;;;;2.90;1.30;;;32.70;84.90;;;;;;4967208;28;20771;-72
2023/08/21 11:00:05;;;;;;;4.00;1.90;;;32.30;86.80;;;;;;4968297;28;20572;-73
2023/08/21 11:02:32;;;;;;;3.63;1.88;;;32.40;87.60;;;;;;4968818;28;20217;-73
2023/08/21 11:04:59;;;;;;;3.15;1.60;;;32.40;85.80;;;;;;4971259;28;20228;-72
2023/08/21 11:07:25;;;;;;;4.95;1.95;;;32.50;87.10;;;;;;4984821;28;20208;-72
2023/08/21 11:09:51;;;;;;;5.03;1.60;;;32.60;86.80;;;;;;4996959;28;20193;-72
2023/08/21 11:12:22;;;;;;;3.35;1.90;;;32.40;87.00;;;;;;4981727;28;20564;-72
2023/08/21 11:14:48;;;;;;;4.30;2.00;;;32.30;88.00;;;;;;4987625;28;20233;-72
2023/08/21 11:17:14;;;;;;;4.75;3.13;;;32.10;89.30;;;;;;4991924;28;20206;-72
2023/08/21 11:19:41;;;;;;;5.18;2.25;;;31.90;88.80;;;;;;4977748;28;20216;-77
2023/08/21 11:22:07;;;;;;;5.45;2.72;;;31.80;88.60;;;;;;4971758;28;20682;-71
2023/08/21 11:24:45;;;;;;;3.83;2.35;;;31.80;88.90;;;;;;4972073;28;20253;-70
2023/08/21 11:27:14;;;;;;;3.13;1.40;;;31.80;87.60;;;;;;4969989;28;20323;-71
2023/08/21 11:29:47;;;;;;;3.55;1.52;;;32.00;86.60;;;;;;4970895;28;20293;-70
2023/08/21 11:32:17;;;;;;;5.03;2.38;;;32.10;86.50;;;;;;4969582;28;20245;-71
2023/08/21 11:34:49;;;;;;;2.60;1.60;;;32.20;86.20;;;;;;4966189;28;20222;-71
2023/08/21 11:37:18;;;;;;;2.78;1.38;;;32.20;86.80;;;;;;4972956;28;20186;-72
2023/08/21 11:39:44;;;;;;;4.88;2.58;;;32.20;86.80;;;;;;4965641;28;20186;-71
2023/08/21 11:42:12;;;;;;;3.78;2.08;;;32.40;86.60;;;;;;4982436;28;20716;-71
2023/08/21 11:44:46;;;;;;;5.85;3.75;;;32.30;87.00;;;;;;4981909;28;20726;-70
2023/08/21 11:47:13;;;;;;;4.15;2.40;;;32.30;88.60;;;;;;4977871;28;20226;-71
2023/08/21 11:49:43;;;;;;;3.53;1.90;;;32.40;87.00;;;;;;4976705;28;20636;-71
2023/08/21 11:52:13;;;;;;;2.80;1.10;;;32.40;86.70;;;;;;4976966;28;20191;-71
2023/08/21 11:54:40;;;;;;;1.85;1.30;;;32.30;86.70;;;;;;4972777;28;20206;-71
2023/08/21 11:57:12;;;;;;;7.10;4.47;;;32.20;86.60;;;;;;4989828;28;20740;-70
2023/08/21 11:59:38;;;;;;;4.05;2.10;;;32.00;85.90;;;;;;4978696;28;20218;-70
2023/08/21 12:02:30;;;;;;;3.65;2.50;;;32.00;85.70;;;;;;4969949;28;20608;-71
2023/08/21 12:05:06;;;;;;;2.92;2.03;;;32.00;86.50;;;;;;4968518;28;20214;-71
2023/08/21 12:07:32;;;;;;;5.80;2.85;;;31.90;87.20;;;;;;4970150;28;20643;-70
2023/08/21 12:09:58;;;;;;;4.80;2.72;;;31.80;86.70;;;;;;4966849;28;20206;-69
2023/08/21 12:12:24;;;;;;;4.38;2.20;;;31.60;87.30;;;;;;4968435;28;20222;-72
2023/08/21 12:14:49;;;;;;;4.78;3.17;;;31.40;89.10;;;;;;4964287;28;20214;-71
2023/08/21 12:17:15;;;;;;;4.00;1.83;;;31.60;88.90;;;;;;4967026;28;20211;-71
2023/08/21 12:19:41;;;;;;;4.50;1.50;;;31.50;89.60;;;;;;4978985;28;20289;-71
2023/08/21 12:22:08;;;;;;;2.38;1.27;;;31.70;89.50;;;;;;4977475;28;20205;-71
2023/08/21 12:24:34;;;;;;;2.88;1.50;;;31.60;89.70;;;;;;4980719;28;20209;-72
2023/08/21 12:26:59;;;;;;;3.75;1.40;;;31.40;90.20;;;;;;4970637;28;20253;-70
2023/08/21 12:29:25;;;;;;;3.45;1.63;;;31.50;90.00;;;;;;4986432;28;20233;-71
2023/08/21 12:31:50;;;;;;;3.13;1.70;;;31.30;89.80;;;;;;4987298;28;20229;-71
2023/08/21 12:34:16;;;;;;;4.93;1.30;;;31.30;89.80;;;;;;4972792;28;20297;-72
2023/08/21 12:36:42;;;;;;;3.65;2.03;;;30.90;89.70;;;;;;4973753;28;20669;-71
2023/08/21 12:39:08;;;;;;;2.95;2.17;;;30.80;90.30;;;;;;4968197;28;20286;-71
2023/08/21 12:41:34;;;;;;;6.05;3.60;;;30.60;90.20;;;;;;4971445;28;20240;-71